createdAt,value
2022-11-30T00:00:00.588Z,1019.62
2022-11-30T00:01:59.704Z,1019.61
2022-11-30T00:03:59.547Z,1019.63
2022-11-30T00:05:59.576Z,1019.62
2022-11-30T00:07:59.588Z,1019.62
2022-11-30T00:09:59.498Z,1019.63
2022-11-30T00:11:59.510Z,1019.64
2022-11-30T00:13:59.658Z,1019.58
2022-11-30T00:15:59.589Z,1019.57
2022-11-30T00:17:59.594Z,1019.57
2022-11-30T00:19:59.486Z,1019.47
2022-11-30T00:21:59.637Z,1019.49
2022-11-30T00:23:59.563Z,1019.49
2022-11-30T00:25:59.513Z,1019.49
2022-11-30T00:27:59.562Z,1019.53
2022-11-30T00:29:59.503Z,1019.45
2022-11-30T00:31:59.553Z,1019.45
2022-11-30T00:33:59.578Z,1019.45
2022-11-30T00:36:29.645Z,1019.45
2022-11-30T00:38:29.491Z,1019.48
2022-11-30T00:40:29.546Z,1019.51
2022-11-30T00:42:29.559Z,1019.54
2022-11-30T00:44:29.823Z,1019.52
2022-11-30T00:46:29.611Z,1019.52
2022-11-30T00:48:29.578Z,1019.58
2022-11-30T00:50:29.511Z,1019.60
2022-11-30T00:52:29.585Z,1019.63
2022-11-30T00:54:29.556Z,1019.63
2022-11-30T00:56:29.520Z,1019.62
2022-11-30T00:58:29.525Z,1019.62
2022-11-30T01:00:29.561Z,1019.59
2022-11-30T01:02:29.645Z,1019.63
2022-11-30T01:04:29.527Z,1019.63
2022-11-30T01:06:29.528Z,1019.63
2022-11-30T01:08:29.570Z,1019.65
2022-11-30T01:10:29.531Z,1019.67
2022-11-30T01:12:29.532Z,1019.67
2022-11-30T01:14:29.524Z,1019.67
2022-11-30T01:16:29.572Z,1019.66
2022-11-30T01:18:29.595Z,1019.67
2022-11-30T01:20:29.570Z,1019.72
2022-11-30T01:22:29.632Z,1019.72
2022-11-30T01:24:29.529Z,1019.71
2022-11-30T01:26:29.654Z,1019.76
2022-11-30T01:28:29.597Z,1019.78
2022-11-30T01:30:30.036Z,1019.78
2022-11-30T01:32:29.592Z,1019.78
2022-11-30T01:34:29.615Z,1019.79
2022-11-30T01:36:29.545Z,1019.83
2022-11-30T01:38:29.768Z,1019.85
2022-11-30T01:40:29.548Z,1019.89
2022-11-30T01:42:29.585Z,1019.89
2022-11-30T01:44:29.578Z,1019.86
2022-11-30T01:46:29.637Z,1019.86
2022-11-30T01:48:29.576Z,1019.89
2022-11-30T01:50:29.628Z,1019.90
2022-11-30T01:52:29.600Z,1019.90
2022-11-30T01:54:29.629Z,1019.90
2022-11-30T01:56:29.610Z,1019.86
2022-11-30T01:58:29.580Z,1019.88
2022-11-30T02:00:29.589Z,1019.88
2022-11-30T02:02:29.671Z,1019.89
2022-11-30T02:04:29.581Z,1019.91
2022-11-30T02:06:29.634Z,1019.94
2022-11-30T02:08:30.302Z,1019.93
2022-11-30T02:10:29.594Z,1019.93
2022-11-30T02:12:29.635Z,1019.96
2022-11-30T02:14:29.596Z,1019.94
2022-11-30T02:16:29.569Z,1019.96
2022-11-30T02:18:29.611Z,1019.99
2022-11-30T02:20:29.648Z,1019.99
2022-11-30T02:22:29.566Z,1020.02
2022-11-30T02:24:29.592Z,1020.06
2022-11-30T02:26:29.675Z,1020.06
2022-11-30T02:28:29.615Z,1020.06
2022-11-30T02:30:59.624Z,1020.10
2022-11-30T02:32:59.555Z,1020.10
2022-11-30T02:34:59.697Z,1020.10
2022-11-30T02:36:59.561Z,1020.08
2022-11-30T02:38:59.628Z,1020.14
2022-11-30T02:40:59.595Z,1020.04
2022-11-30T02:42:59.651Z,1020.04
2022-11-30T02:44:59.670Z,1019.99
2022-11-30T02:46:59.621Z,1019.94
2022-11-30T02:48:59.613Z,1019.95
2022-11-30T02:50:59.723Z,1019.97
2022-11-30T02:52:59.635Z,1019.97
2022-11-30T02:54:59.594Z,1020.04
2022-11-30T02:56:59.590Z,1020.04
2022-11-30T02:58:59.650Z,1020.06
2022-11-30T03:00:59.700Z,1020.06
2022-11-30T03:02:59.691Z,1020.00
2022-11-30T03:04:59.622Z,1020.00
2022-11-30T03:06:59.756Z,1020.00
2022-11-30T03:08:59.604Z,1020.06
2022-11-30T03:10:59.634Z,1020.06
2022-11-30T03:12:59.649Z,1020.09
2022-11-30T03:14:59.641Z,1020.08
2022-11-30T03:16:59.647Z,1020.12
2022-11-30T03:18:59.590Z,1020.14
2022-11-30T03:20:59.640Z,1020.14
2022-11-30T03:22:59.644Z,1020.12
2022-11-30T03:24:59.634Z,1020.14
2022-11-30T03:26:59.592Z,1020.11
2022-11-30T03:28:59.610Z,1020.11
2022-11-30T03:30:59.748Z,1020.15
2022-11-30T03:32:59.623Z,1020.16
2022-11-30T03:34:59.593Z,1020.16
2022-11-30T03:36:59.644Z,1020.17
2022-11-30T03:38:59.702Z,1020.17
2022-11-30T03:40:59.617Z,1020.18
2022-11-30T03:42:59.632Z,1020.18
2022-11-30T03:44:59.625Z,1020.15
2022-11-30T03:46:59.647Z,1020.15
2022-11-30T03:48:59.626Z,1020.15
2022-11-30T03:50:59.700Z,1020.16
2022-11-30T03:52:59.634Z,1020.10
2022-11-30T03:54:59.623Z,1020.10
2022-11-30T03:56:59.641Z,1020.10
2022-11-30T03:58:59.700Z,1020.12
2022-11-30T04:00:59.631Z,1020.09
2022-11-30T04:02:59.732Z,1020.11
2022-11-30T04:04:59.674Z,1020.11
2022-11-30T04:06:59.729Z,1020.11
2022-11-30T04:08:59.665Z,1020.11
2022-11-30T04:10:59.622Z,1020.15
2022-11-30T04:12:59.682Z,1020.08
2022-11-30T04:14:59.645Z,1020.09
2022-11-30T04:16:59.651Z,1020.09
2022-11-30T04:18:59.643Z,1020.11
2022-11-30T04:21:29.705Z,1020.10
2022-11-30T04:23:29.663Z,1020.13
2022-11-30T04:25:29.674Z,1020.13
2022-11-30T04:27:29.624Z,1020.11
2022-11-30T04:29:29.643Z,1020.11
2022-11-30T04:31:29.672Z,1020.17
2022-11-30T04:33:29.691Z,1020.15
2022-11-30T04:35:29.676Z,1020.15
2022-11-30T04:37:29.672Z,1020.18
2022-11-30T04:39:29.686Z,1020.19
2022-11-30T04:41:29.634Z,1020.21
2022-11-30T04:43:29.640Z,1020.20
2022-11-30T04:45:35.081Z,1020.20
2022-11-30T04:47:29.681Z,1020.23
2022-11-30T04:49:29.699Z,1020.24
2022-11-30T04:51:29.764Z,1020.28
2022-11-30T04:53:29.706Z,1020.31
2022-11-30T04:55:29.628Z,1020.31
2022-11-30T04:57:29.812Z,1020.33
2022-11-30T04:59:29.660Z,1020.37
2022-11-30T05:01:29.699Z,1020.37
2022-11-30T05:03:29.649Z,1020.37
2022-11-30T05:05:29.715Z,1020.39
2022-11-30T05:07:29.823Z,1020.41
2022-11-30T05:09:29.681Z,1020.41
2022-11-30T05:11:29.744Z,1020.42
2022-11-30T05:13:29.727Z,1020.42
2022-11-30T05:15:30.310Z,1020.42
2022-11-30T05:17:29.702Z,1020.46
2022-11-30T05:19:29.667Z,1020.44
2022-11-30T05:21:29.653Z,1020.44
2022-11-30T05:23:29.715Z,1020.44
2022-11-30T05:25:29.818Z,1020.48
2022-11-30T05:27:29.694Z,1020.46
2022-11-30T05:29:29.977Z,1020.47
2022-11-30T05:31:29.801Z,1020.47
2022-11-30T05:33:29.828Z,1020.50
2022-11-30T05:35:29.787Z,1020.50
2022-11-30T05:37:29.767Z,1020.52
2022-11-30T05:39:29.926Z,1020.59
2022-11-30T05:41:29.878Z,1020.59
2022-11-30T05:43:29.715Z,1020.60
2022-11-30T05:45:29.876Z,1020.63
2022-11-30T05:47:29.689Z,1020.63
2022-11-30T05:49:29.746Z,1020.63
2022-11-30T05:51:29.705Z,1020.63
2022-11-30T05:53:29.676Z,1020.65
2022-11-30T05:55:29.901Z,1020.64
2022-11-30T05:57:29.784Z,1020.68
2022-11-30T05:59:29.804Z,1020.68
2022-11-30T06:03:52.696Z,1020.66
2022-11-30T06:05:52.634Z,1020.64
2022-11-30T06:07:52.750Z,1020.66
2022-11-30T06:09:52.727Z,1020.63
2022-11-30T06:11:52.718Z,1020.59
2022-11-30T06:13:52.647Z,1020.59
2022-11-30T06:15:52.678Z,1020.57
2022-11-30T06:17:52.681Z,1020.58
2022-11-30T06:19:52.726Z,1020.61
2022-11-30T06:21:52.731Z,1020.59
2022-11-30T06:23:52.698Z,1020.59
2022-11-30T06:25:52.691Z,1020.57
2022-11-30T06:27:52.690Z,1020.60
2022-11-30T06:29:52.639Z,1020.60
2022-11-30T06:31:52.690Z,1020.60
2022-11-30T06:33:52.607Z,1020.59
2022-11-30T06:35:52.639Z,1020.59
2022-11-30T06:37:52.905Z,1020.59
2022-11-30T06:40:07.824Z,1020.57
2022-11-30T06:41:54.618Z,1020.57
2022-11-30T06:43:52.627Z,1020.58
2022-11-30T06:45:52.632Z,1020.56
2022-11-30T06:47:52.690Z,1020.52
2022-11-30T06:49:52.675Z,1020.56
2022-11-30T06:51:52.602Z,1020.56
2022-11-30T06:53:52.627Z,1020.60
2022-11-30T06:55:52.613Z,1020.63
2022-11-30T06:57:52.605Z,1020.66
2022-11-30T06:59:52.690Z,1020.66
2022-11-30T07:01:52.639Z,1020.70
2022-11-30T07:03:52.671Z,1020.66
2022-11-30T07:05:52.629Z,1020.67
2022-11-30T07:07:52.798Z,1020.67
2022-11-30T07:09:52.644Z,1020.67
2022-11-30T07:11:52.696Z,1020.67
2022-11-30T07:13:52.656Z,1020.66
2022-11-30T07:15:52.663Z,1020.66
2022-11-30T07:17:52.690Z,1020.66
2022-11-30T07:19:52.680Z,1020.66
2022-11-30T07:21:52.674Z,1020.62
2022-11-30T07:23:56.664Z,1020.62
2022-11-30T07:25:52.666Z,1020.70
2022-11-30T07:27:52.650Z,1020.70
2022-11-30T07:29:52.701Z,1020.75
2022-11-30T07:31:52.685Z,1020.73
2022-11-30T07:33:52.639Z,1020.72
2022-11-30T07:35:52.693Z,1020.75
2022-11-30T07:38:22.691Z,1020.75
2022-11-30T07:40:22.650Z,1020.78
2022-11-30T07:42:22.754Z,1020.77
2022-11-30T07:44:22.678Z,1020.80
2022-11-30T07:46:22.697Z,1020.82
2022-11-30T07:48:22.796Z,1020.82
2022-11-30T07:50:22.852Z,1020.85
2022-11-30T07:52:22.720Z,1020.85
2022-11-30T07:54:22.692Z,1020.88
2022-11-30T07:56:22.645Z,1020.88
2022-11-30T07:58:22.657Z,1020.91
2022-11-30T08:00:22.669Z,1020.90
2022-11-30T08:02:22.790Z,1020.93
2022-11-30T08:04:22.906Z,1020.94
2022-11-30T08:06:22.663Z,1020.94
2022-11-30T08:08:22.700Z,1021.01
2022-11-30T08:10:22.652Z,1020.99
2022-11-30T08:12:22.683Z,1021.02
2022-11-30T08:14:22.665Z,1021.01
2022-11-30T08:16:22.730Z,1021.01
2022-11-30T08:18:22.789Z,1021.01
2022-11-30T08:20:22.681Z,1021.04
2022-11-30T08:22:22.711Z,1021.02
2022-11-30T08:24:22.705Z,1021.06
2022-11-30T08:26:22.704Z,1021.06
2022-11-30T08:28:22.665Z,1021.13
2022-11-30T08:30:27.677Z,1021.12
2022-11-30T08:32:22.703Z,1021.12
2022-11-30T08:34:22.701Z,1021.12
2022-11-30T08:36:22.716Z,1021.13
2022-11-30T08:38:22.701Z,1021.14
2022-11-30T08:40:22.653Z,1021.15
2022-11-30T08:42:22.678Z,1021.16
2022-11-30T08:44:22.719Z,1021.16
2022-11-30T08:48:22.691Z,1021.22
2022-11-30T08:50:22.738Z,1021.23
2022-11-30T08:52:22.739Z,1021.17
2022-11-30T08:54:22.733Z,1021.17
2022-11-30T08:56:22.685Z,1021.22
2022-11-30T08:58:22.707Z,1021.19
2022-11-30T09:00:22.732Z,1021.16
2022-11-30T09:02:22.753Z,1021.16
2022-11-30T09:04:22.709Z,1021.21
2022-11-30T09:06:22.697Z,1021.26
2022-11-30T09:08:22.762Z,1021.31
2022-11-30T09:10:22.740Z,1021.31
2022-11-30T09:12:22.700Z,1021.31
2022-11-30T09:14:22.734Z,1021.31
2022-11-30T09:16:22.762Z,1021.26
2022-11-30T09:18:22.719Z,1021.26
2022-11-30T09:20:22.716Z,1021.27
2022-11-30T09:22:22.727Z,1021.27
2022-11-30T09:24:22.756Z,1021.22
2022-11-30T09:26:22.742Z,1021.25
2022-11-30T09:28:22.761Z,1021.19
2022-11-30T09:30:52.872Z,1021.19
2022-11-30T09:32:52.811Z,1021.18
2022-11-30T09:34:53.131Z,1021.18
2022-11-30T09:36:52.715Z,1021.16
2022-11-30T09:38:52.737Z,1021.17
2022-11-30T09:40:52.805Z,1021.20
2022-11-30T09:42:52.758Z,1021.21
2022-11-30T09:44:52.726Z,1021.21
2022-11-30T09:46:52.757Z,1021.12
2022-11-30T09:48:52.900Z,1021.13
2022-11-30T09:50:52.705Z,1021.12
2022-11-30T09:52:52.761Z,1021.12
2022-11-30T09:54:52.710Z,1021.12
2022-11-30T09:56:52.764Z,1021.18
2022-11-30T09:58:52.761Z,1021.19
2022-11-30T10:00:52.742Z,1021.24
2022-11-30T10:02:53.157Z,1021.24
2022-11-30T10:04:52.766Z,1021.27
2022-11-30T10:06:52.752Z,1021.23
2022-11-30T10:08:52.716Z,1021.24
2022-11-30T10:10:52.788Z,1021.22
2022-11-30T10:12:52.800Z,1021.22
2022-11-30T10:14:55.968Z,1021.19
2022-11-30T10:16:52.757Z,1021.19
2022-11-30T10:18:52.727Z,1021.21
2022-11-30T10:20:52.748Z,1021.17
2022-11-30T10:22:52.747Z,1021.17
2022-11-30T10:24:52.770Z,1021.16
2022-11-30T10:26:52.730Z,1021.21
2022-11-30T10:28:52.794Z,1021.17
2022-11-30T10:30:52.942Z,1021.17
2022-11-30T10:32:52.768Z,1021.21
2022-11-30T10:34:52.790Z,1021.21
2022-11-30T10:36:52.731Z,1021.22
2022-11-30T10:38:52.811Z,1021.23
2022-11-30T10:40:52.805Z,1021.23
2022-11-30T10:42:52.763Z,1021.17
2022-11-30T10:44:52.743Z,1021.17
2022-11-30T10:46:52.781Z,1021.15
2022-11-30T10:48:52.766Z,1021.12
2022-11-30T10:50:52.802Z,1021.12
2022-11-30T10:52:52.761Z,1021.13
2022-11-30T10:54:52.751Z,1021.13
2022-11-30T10:56:52.761Z,1021.11
2022-11-30T10:58:52.788Z,1021.11
2022-11-30T11:00:52.781Z,1021.11
2022-11-30T11:02:52.792Z,1021.11
2022-11-30T11:04:52.765Z,1021.08
2022-11-30T11:06:52.842Z,1021.02
2022-11-30T11:08:52.733Z,1021.02
2022-11-30T11:10:52.770Z,1020.98
2022-11-30T11:12:52.762Z,1020.94
2022-11-30T11:14:52.764Z,1020.94
2022-11-30T11:16:52.800Z,1020.91
2022-11-30T11:18:52.812Z,1020.91
2022-11-30T11:21:22.810Z,1020.92
2022-11-30T11:23:22.789Z,1020.93
2022-11-30T11:25:22.755Z,1020.95
2022-11-30T11:27:22.838Z,1020.95
2022-11-30T11:29:22.761Z,1020.95
2022-11-30T11:31:22.813Z,1020.91
2022-11-30T11:33:22.827Z,1020.91
2022-11-30T11:35:22.777Z,1020.93
2022-11-30T11:37:22.834Z,1020.93
2022-11-30T11:39:22.795Z,1020.91
2022-11-30T11:41:22.788Z,1020.92
2022-11-30T11:43:22.791Z,1020.90
2022-11-30T11:45:22.774Z,1020.94
2022-11-30T11:47:23.847Z,1020.94
2022-11-30T11:49:22.810Z,1020.96
2022-11-30T11:51:22.830Z,1020.95
2022-11-30T11:53:23.020Z,1020.92
2022-11-30T11:55:22.811Z,1020.92
2022-11-30T11:57:22.836Z,1020.92
2022-11-30T11:59:24.806Z,1020.92
2022-11-30T12:03:22.840Z,1020.81
2022-11-30T12:05:22.790Z,1020.81
2022-11-30T12:07:22.916Z,1020.92
2022-11-30T12:09:22.786Z,1020.90
2022-11-30T12:11:22.872Z,1020.88
2022-11-30T12:13:22.836Z,1020.87
2022-11-30T12:15:22.858Z,1020.87
2022-11-30T12:17:22.808Z,1020.86
2022-11-30T12:19:22.807Z,1020.87
2022-11-30T12:21:22.856Z,1020.77
2022-11-30T12:23:22.797Z,1020.75
2022-11-30T12:25:22.791Z,1020.75
2022-11-30T12:27:22.870Z,1020.72
2022-11-30T12:29:22.825Z,1020.72
2022-11-30T12:31:22.871Z,1020.78
2022-11-30T12:33:25.119Z,1020.78
2022-11-30T12:35:22.844Z,1020.77
2022-11-30T12:37:22.823Z,1020.77
2022-11-30T12:39:22.886Z,1020.84
2022-11-30T12:41:22.919Z,1020.83
2022-11-30T12:43:22.881Z,1020.83
2022-11-30T12:45:22.879Z,1020.82
2022-11-30T12:47:22.849Z,1020.78
2022-11-30T12:49:22.803Z,1020.79
2022-11-30T12:51:28.010Z,1020.83
2022-11-30T12:53:22.910Z,1020.83
2022-11-30T12:57:22.954Z,1020.81
2022-11-30T12:59:22.946Z,1020.81
2022-11-30T13:03:22.925Z,1020.81
2022-11-30T13:07:23.031Z,1020.80
2022-11-30T13:11:31.330Z,1020.81
2022-11-30T13:13:31.349Z,1020.79
2022-11-30T13:15:31.372Z,1020.84
2022-11-30T13:17:31.339Z,1020.84
2022-11-30T13:19:31.329Z,1020.84
2022-11-30T13:21:31.360Z,1020.84
2022-11-30T13:23:31.285Z,1020.86
2022-11-30T13:26:06.241Z,1020.88
2022-11-30T13:27:31.334Z,1020.85
2022-11-30T13:29:31.360Z,1020.85
2022-11-30T13:31:31.463Z,1020.85
2022-11-30T13:33:31.317Z,1020.85
2022-11-30T13:35:31.308Z,1020.86
2022-11-30T13:37:31.339Z,1020.84
2022-11-30T13:39:31.370Z,1020.84
2022-11-30T13:41:31.378Z,1020.83
2022-11-30T13:44:01.357Z,1020.80
2022-11-30T13:46:01.329Z,1020.82
2022-11-30T13:48:01.326Z,1020.81
2022-11-30T13:50:01.331Z,1020.81
2022-11-30T13:52:22.106Z,1020.83
2022-11-30T13:54:18.268Z,1020.83
2022-11-30T13:56:01.317Z,1020.86
2022-11-30T13:58:01.327Z,1020.86
2022-11-30T14:00:01.506Z,1020.82
2022-11-30T14:02:01.426Z,1020.82
2022-11-30T14:04:01.379Z,1020.83
2022-11-30T14:06:01.332Z,1020.83
2022-11-30T14:08:01.411Z,1020.86
2022-11-30T14:10:01.392Z,1020.86
2022-11-30T14:12:01.456Z,1020.86
2022-11-30T14:14:01.332Z,1020.85
2022-11-30T14:16:01.491Z,1020.90
2022-11-30T14:18:01.362Z,1020.88
2022-11-30T14:20:01.331Z,1020.89
2022-11-30T14:22:01.398Z,1020.89
2022-11-30T14:24:01.335Z,1020.88
2022-11-30T14:26:05.027Z,1020.87
2022-11-30T14:28:01.420Z,1020.90
2022-11-30T14:30:01.375Z,1020.93
2022-11-30T14:32:01.378Z,1020.93
2022-11-30T14:34:01.380Z,1020.95
2022-11-30T14:36:01.338Z,1020.95
2022-11-30T14:38:01.384Z,1020.95
2022-11-30T14:40:01.459Z,1020.95
2022-11-30T14:42:01.431Z,1020.97
2022-11-30T14:44:01.402Z,1020.98
2022-11-30T14:46:05.029Z,1020.98
2022-11-30T14:48:01.378Z,1021.00
2022-11-30T14:50:01.355Z,1021.00
2022-11-30T14:52:01.363Z,1020.99
2022-11-30T14:54:01.387Z,1020.95
2022-11-30T14:56:01.341Z,1020.97
2022-11-30T14:58:06.758Z,1020.98
2022-11-30T15:00:01.394Z,1020.98
2022-11-30T15:02:01.400Z,1020.97
2022-11-30T15:04:01.382Z,1020.96
2022-11-30T15:06:01.376Z,1021.00
2022-11-30T15:08:01.549Z,1021.00
2022-11-30T15:10:01.450Z,1020.98
2022-11-30T15:12:01.500Z,1021.01
2022-11-30T15:14:01.364Z,1021.02
2022-11-30T15:16:01.412Z,1021.04
2022-11-30T15:18:01.344Z,1021.04
2022-11-30T15:20:01.398Z,1021.04
2022-11-30T15:22:01.390Z,1021.09
2022-11-30T15:24:01.413Z,1021.11
2022-11-30T15:26:01.374Z,1021.15
2022-11-30T15:28:01.549Z,1021.15
2022-11-30T15:30:01.432Z,1021.17
2022-11-30T15:32:01.474Z,1021.16
2022-11-30T15:34:31.432Z,1021.18
2022-11-30T15:36:33.420Z,1021.18
2022-11-30T15:38:31.496Z,1021.19
2022-11-30T15:40:31.572Z,1021.18
2022-11-30T15:42:31.533Z,1021.21
2022-11-30T15:44:31.395Z,1021.25
2022-11-30T15:46:31.494Z,1021.25
2022-11-30T15:48:31.409Z,1021.25
2022-11-30T15:50:31.436Z,1021.25
2022-11-30T15:52:31.399Z,1021.27
2022-11-30T15:54:31.490Z,1021.29
2022-11-30T15:56:31.453Z,1021.29
2022-11-30T15:58:31.383Z,1021.32
2022-11-30T16:00:31.428Z,1021.32
2022-11-30T16:02:31.493Z,1021.32
2022-11-30T16:04:31.562Z,1021.32
2022-11-30T16:06:31.485Z,1021.38
2022-11-30T16:08:31.417Z,1021.37
2022-11-30T16:10:31.382Z,1021.35
2022-11-30T16:12:31.414Z,1021.35
2022-11-30T16:14:31.508Z,1021.35
2022-11-30T16:16:31.540Z,1021.43
2022-11-30T16:18:31.388Z,1021.46
2022-11-30T16:20:31.483Z,1021.45
2022-11-30T16:22:31.419Z,1021.45
2022-11-30T16:24:31.572Z,1021.45
2022-11-30T16:28:31.409Z,1021.46
2022-11-30T16:30:31.481Z,1021.48
2022-11-30T16:32:31.413Z,1021.45
2022-11-30T16:34:31.482Z,1021.45
2022-11-30T16:36:31.496Z,1021.46
2022-11-30T16:38:31.551Z,1021.54
2022-11-30T16:40:36.888Z,1021.54
2022-11-30T16:42:31.445Z,1021.54
2022-11-30T16:44:31.442Z,1021.54
2022-11-30T16:46:31.467Z,1021.54
2022-11-30T16:48:31.462Z,1021.57
2022-11-30T16:50:31.425Z,1021.56
2022-11-30T16:52:31.444Z,1021.56
2022-11-30T16:54:31.557Z,1021.59
2022-11-30T16:56:31.478Z,1021.60
2022-11-30T16:58:31.549Z,1021.65
2022-11-30T17:00:31.430Z,1021.68
2022-11-30T17:02:31.562Z,1021.68
2022-11-30T17:04:31.598Z,1021.67
2022-11-30T17:06:31.507Z,1021.71
2022-11-30T17:08:31.481Z,1021.74
2022-11-30T17:10:31.453Z,1021.74
2022-11-30T17:12:31.402Z,1021.69
2022-11-30T17:14:31.479Z,1021.66
2022-11-30T17:16:31.566Z,1021.66
2022-11-30T17:18:31.470Z,1021.71
2022-11-30T17:20:31.568Z,1021.71
2022-11-30T17:22:31.519Z,1021.71
2022-11-30T17:25:01.748Z,1021.76
2022-11-30T17:27:01.567Z,1021.82
2022-11-30T17:29:01.491Z,1021.82
2022-11-30T17:31:01.619Z,1021.88
2022-11-30T17:33:01.558Z,1021.89
2022-11-30T17:35:01.550Z,1021.89
2022-11-30T17:37:01.509Z,1021.95
2022-11-30T17:39:01.596Z,1021.96
2022-11-30T17:41:01.514Z,1021.96
2022-11-30T17:43:01.579Z,1021.96
2022-11-30T17:45:01.553Z,1021.97
2022-11-30T17:47:01.510Z,1021.97
2022-11-30T17:49:01.528Z,1021.99
2022-11-30T17:51:01.575Z,1022.01
2022-11-30T17:53:01.584Z,1022.01
2022-11-30T17:55:01.548Z,1021.99
2022-11-30T17:57:01.614Z,1021.97
2022-11-30T17:59:01.616Z,1021.97
2022-11-30T18:01:01.569Z,1021.97
2022-11-30T18:03:01.587Z,1021.97
2022-11-30T18:05:03.178Z,1021.97
2022-11-30T18:07:01.549Z,1021.99
2022-11-30T18:09:01.544Z,1021.98
2022-11-30T18:11:01.606Z,1021.98
2022-11-30T18:13:01.611Z,1022.02
2022-11-30T18:15:01.524Z,1022.01
2022-11-30T18:17:01.583Z,1022.04
2022-11-30T18:19:01.543Z,1022.06
2022-11-30T18:21:01.555Z,1022.06
2022-11-30T18:23:01.569Z,1022.07
2022-11-30T18:25:01.610Z,1022.09
2022-11-30T18:27:01.680Z,1022.11
2022-11-30T18:29:01.463Z,1022.13
2022-11-30T18:31:01.557Z,1022.13
2022-11-30T18:33:01.649Z,1022.15
2022-11-30T18:35:01.641Z,1022.12
2022-11-30T18:37:01.580Z,1022.17
2022-11-30T18:39:01.577Z,1022.17
2022-11-30T18:41:01.603Z,1022.19
2022-11-30T18:43:01.489Z,1022.19
2022-11-30T18:45:01.519Z,1022.18
2022-11-30T18:47:01.573Z,1022.18
2022-11-30T18:49:01.621Z,1022.18
2022-11-30T18:51:01.690Z,1022.19
2022-11-30T18:53:01.592Z,1022.23
2022-11-30T18:55:03.559Z,1022.21
2022-11-30T18:57:01.602Z,1022.22
2022-11-30T18:59:01.484Z,1022.22
2022-11-30T19:01:01.628Z,1022.18
2022-11-30T19:03:01.587Z,1022.18
2022-11-30T19:05:01.465Z,1022.18
2022-11-30T19:07:01.582Z,1022.18
2022-11-30T19:09:01.572Z,1022.20
2022-11-30T19:11:05.005Z,1022.21
2022-11-30T19:13:01.641Z,1022.22
2022-11-30T19:15:01.576Z,1022.26
2022-11-30T19:17:31.555Z,1022.26
2022-11-30T19:19:31.486Z,1022.27
2022-11-30T19:21:31.608Z,1022.26
2022-11-30T19:23:31.600Z,1022.26
2022-11-30T19:25:31.582Z,1022.25
2022-11-30T19:27:31.650Z,1022.25
2022-11-30T19:29:31.524Z,1022.24
2022-11-30T19:31:31.696Z,1022.25
2022-11-30T19:33:31.609Z,1022.23
2022-11-30T19:35:31.609Z,1022.26
2022-11-30T19:37:31.579Z,1022.26
2022-11-30T19:39:31.698Z,1022.28
2022-11-30T19:41:31.711Z,1022.29
2022-11-30T19:43:31.558Z,1022.32
2022-11-30T19:45:31.553Z,1022.32
2022-11-30T19:47:31.627Z,1022.33
2022-11-30T19:49:31.617Z,1022.30
2022-11-30T19:51:31.618Z,1022.34
2022-11-30T19:53:31.607Z,1022.39
2022-11-30T19:55:31.710Z,1022.39
2022-11-30T19:57:31.566Z,1022.39
2022-11-30T19:59:31.678Z,1022.39
2022-11-30T20:01:31.782Z,1022.42
2022-11-30T20:03:31.621Z,1022.42
2022-11-30T20:05:31.586Z,1022.42
2022-11-30T20:07:31.742Z,1022.38
2022-11-30T20:09:31.575Z,1022.41
2022-11-30T20:11:31.612Z,1022.40
2022-11-30T20:13:43.227Z,1022.40
2022-11-30T20:15:43.296Z,1022.44
2022-11-30T20:17:43.158Z,1022.42
2022-11-30T20:19:43.144Z,1022.43
2022-11-30T20:21:43.189Z,1022.47
2022-11-30T20:23:43.279Z,1022.47
2022-11-30T20:25:43.149Z,1022.46
2022-11-30T20:27:43.138Z,1022.47
2022-11-30T20:29:43.163Z,1022.43
2022-11-30T20:31:43.197Z,1022.45
2022-11-30T20:33:43.161Z,1022.45
2022-11-30T20:35:43.307Z,1022.44
2022-11-30T20:37:43.194Z,1022.42
2022-11-30T20:39:46.024Z,1022.41
2022-11-30T20:41:43.158Z,1022.41
2022-11-30T20:43:43.228Z,1022.37
2022-11-30T20:45:43.220Z,1022.37
2022-11-30T20:47:43.299Z,1022.39
2022-11-30T20:49:43.179Z,1022.40
2022-11-30T20:51:43.178Z,1022.40
2022-11-30T20:53:43.296Z,1022.40
2022-11-30T20:55:43.175Z,1022.40
2022-11-30T20:57:43.205Z,1022.41
2022-11-30T20:59:43.175Z,1022.42
2022-11-30T21:01:43.286Z,1022.42
2022-11-30T21:03:43.209Z,1022.42
2022-11-30T21:05:43.271Z,1022.42
2022-11-30T21:07:43.278Z,1022.42
2022-11-30T21:09:43.175Z,1022.42
2022-11-30T21:11:43.161Z,1022.42
2022-11-30T21:13:43.142Z,1022.42
2022-11-30T21:15:43.210Z,1022.42
2022-11-30T21:17:43.178Z,1022.46
2022-11-30T21:19:43.189Z,1022.46
2022-11-30T21:21:43.197Z,1022.45
2022-11-30T21:23:43.286Z,1022.48
2022-11-30T21:25:43.201Z,1022.48
2022-11-30T21:27:43.217Z,1022.44
2022-11-30T21:29:43.228Z,1022.44
2022-11-30T21:31:43.289Z,1022.50
2022-11-30T21:33:48.922Z,1022.51
2022-11-30T21:35:43.271Z,1022.51
2022-11-30T21:37:43.190Z,1022.52
2022-11-30T21:39:43.196Z,1022.52
2022-11-30T21:41:43.185Z,1022.52
2022-11-30T21:43:43.227Z,1022.49
2022-11-30T21:45:43.197Z,1022.48
2022-11-30T21:47:43.196Z,1022.48
2022-11-30T21:49:43.311Z,1022.50
2022-11-30T21:51:43.213Z,1022.52
2022-11-30T21:53:43.226Z,1022.53
2022-11-30T21:56:13.269Z,1022.48
2022-11-30T21:58:13.186Z,1022.47
2022-11-30T22:00:13.208Z,1022.50
2022-11-30T22:02:13.181Z,1022.50
2022-11-30T22:04:13.269Z,1022.46
2022-11-30T22:06:13.313Z,1022.46
2022-11-30T22:08:13.252Z,1022.44
2022-11-30T22:10:13.215Z,1022.44
2022-11-30T22:12:13.189Z,1022.44
2022-11-30T22:14:13.240Z,1022.43
2022-11-30T22:16:13.231Z,1022.42
2022-11-30T22:18:13.190Z,1022.39
2022-11-30T22:20:13.201Z,1022.39
2022-11-30T22:22:13.253Z,1022.38
2022-11-30T22:24:13.254Z,1022.40
2022-11-30T22:26:13.263Z,1022.44
2022-11-30T22:28:13.315Z,1022.43
2022-11-30T22:30:13.249Z,1022.43
2022-11-30T22:32:13.303Z,1022.45
2022-11-30T22:34:13.236Z,1022.45
2022-11-30T22:36:13.200Z,1022.46
2022-11-30T22:38:13.183Z,1022.45
2022-11-30T22:40:13.204Z,1022.45
2022-11-30T22:42:13.261Z,1022.45
2022-11-30T22:44:13.310Z,1022.43
2022-11-30T22:46:13.882Z,1022.43
2022-11-30T22:48:13.268Z,1022.43
2022-11-30T22:50:13.247Z,1022.44
2022-11-30T22:52:13.258Z,1022.46
2022-11-30T22:54:13.249Z,1022.45
2022-11-30T22:56:13.320Z,1022.46
2022-11-30T22:58:13.238Z,1022.46
2022-11-30T23:00:13.207Z,1022.43
2022-11-30T23:02:13.326Z,1022.44
2022-11-30T23:04:13.258Z,1022.45
2022-11-30T23:06:13.235Z,1022.40
2022-11-30T23:08:13.316Z,1022.40
2022-11-30T23:10:13.261Z,1022.40
2022-11-30T23:12:24.828Z,1022.37
2022-11-30T23:14:13.205Z,1022.34
2022-11-30T23:16:13.330Z,1022.34
2022-11-30T23:18:13.280Z,1022.31
2022-11-30T23:20:13.246Z,1022.31
2022-11-30T23:22:13.267Z,1022.27
2022-11-30T23:24:13.267Z,1022.25
2022-11-30T23:26:13.261Z,1022.25
2022-11-30T23:28:13.286Z,1022.25
2022-11-30T23:30:13.211Z,1022.24
2022-11-30T23:32:13.280Z,1022.23
2022-11-30T23:34:13.262Z,1022.23
2022-11-30T23:36:13.230Z,1022.23
2022-11-30T23:38:13.311Z,1022.24
2022-11-30T23:40:13.327Z,1022.22
2022-11-30T23:42:13.289Z,1022.26
2022-11-30T23:44:13.374Z,1022.26
2022-11-30T23:46:13.282Z,1022.27
2022-11-30T23:48:43.240Z,1022.25
2022-11-30T23:50:43.276Z,1022.25
2022-11-30T23:52:43.278Z,1022.24
2022-11-30T23:54:43.240Z,1022.24
2022-11-30T23:56:43.246Z,1022.26
2022-11-30T23:58:43.261Z,1022.26
